createdAt,value
2019-05-15T00:00:58.822Z,77.50
2019-05-15T00:03:28.836Z,77.60
2019-05-15T00:05:58.688Z,77.60
2019-05-15T00:08:28.751Z,77.90
2019-05-15T00:10:58.796Z,78.10
2019-05-15T00:13:28.355Z,78.10
2019-05-15T00:15:59.030Z,77.90
2019-05-15T00:18:28.332Z,77.80
2019-05-15T00:20:59.532Z,77.70
2019-05-15T00:23:29.203Z,77.80
2019-05-15T00:25:59.642Z,77.80
2019-05-15T00:28:28.755Z,77.60
2019-05-15T00:30:58.336Z,77.80
2019-05-15T00:33:28.576Z,78.20
2019-05-15T00:35:58.948Z,78.30
2019-05-15T00:38:28.308Z,78.60
2019-05-15T00:40:58.491Z,78.60
2019-05-15T00:43:29.083Z,78.90
2019-05-15T00:45:58.686Z,78.60
2019-05-15T00:48:29.187Z,79.20
2019-05-15T00:50:59.038Z,80.20
2019-05-15T00:53:28.424Z,80.00
2019-05-15T00:55:58.760Z,80.20
2019-05-15T00:58:28.355Z,80.10
2019-05-15T01:00:59.168Z,81.00
2019-05-15T01:03:28.479Z,81.30
2019-05-15T01:05:58.629Z,81.80
2019-05-15T01:08:28.519Z,82.80
2019-05-15T01:10:58.326Z,81.60
2019-05-15T01:13:28.281Z,82.00
2019-05-15T01:15:58.258Z,82.50
2019-05-15T01:18:29.263Z,82.50
2019-05-15T01:20:58.806Z,83.50
2019-05-15T01:23:28.338Z,82.20
2019-05-15T01:25:58.887Z,82.90
2019-05-15T01:28:28.887Z,83.70
2019-05-15T01:30:59.311Z,84.50
2019-05-15T01:33:28.572Z,83.70
2019-05-15T01:35:59.060Z,82.80
2019-05-15T01:38:28.353Z,83.10
2019-05-15T01:40:59.167Z,83.40
2019-05-15T01:43:29.165Z,83.90
2019-05-15T01:45:58.940Z,83.30
2019-05-15T01:48:28.434Z,85.40
2019-05-15T01:50:58.538Z,84.00
2019-05-15T01:53:29.066Z,83.30
2019-05-15T01:55:58.924Z,84.00
2019-05-15T01:58:28.854Z,84.80
2019-05-15T02:00:58.980Z,85.10
2019-05-15T02:03:29.020Z,84.50
2019-05-15T02:05:58.751Z,84.80
2019-05-15T02:08:28.607Z,84.50
2019-05-15T02:10:58.876Z,84.70
2019-05-15T02:13:28.421Z,85.10
2019-05-15T02:15:58.903Z,84.70
2019-05-15T02:18:28.666Z,84.50
2019-05-15T02:20:58.841Z,84.00
2019-05-15T02:23:29.771Z,84.20
2019-05-15T02:25:58.972Z,84.90
2019-05-15T02:28:28.908Z,84.20
2019-05-15T02:30:58.919Z,84.20
2019-05-15T02:33:30.138Z,84.30
2019-05-15T02:35:59.518Z,83.60
2019-05-15T02:38:29.814Z,84.20
2019-05-15T02:40:59.467Z,83.20
2019-05-15T02:43:29.851Z,83.30
2019-05-15T02:46:00.548Z,82.90
2019-05-15T02:48:30.085Z,83.60
2019-05-15T02:50:59.393Z,84.00
2019-05-15T02:53:30.074Z,82.60
2019-05-15T02:56:00.284Z,82.80
2019-05-15T02:58:29.696Z,83.70
2019-05-15T03:00:59.486Z,82.80
2019-05-15T03:03:29.636Z,82.10
2019-05-15T03:06:00.187Z,83.20
2019-05-15T03:08:30.089Z,82.90
2019-05-15T03:10:59.524Z,82.80
2019-05-15T03:13:29.954Z,82.40
2019-05-15T03:16:00.064Z,82.90
2019-05-15T03:18:29.370Z,82.70
2019-05-15T03:21:00.301Z,81.50
2019-05-15T03:23:29.870Z,82.20
2019-05-15T03:26:03.704Z,81.00
2019-05-15T03:28:30.017Z,81.80
2019-05-15T03:31:35.942Z,81.30
2019-05-15T03:33:36.650Z,81.60
2019-05-15T03:36:03.383Z,81.60
2019-05-15T03:38:31.927Z,81.50
2019-05-15T03:41:01.069Z,81.50
2019-05-15T03:43:30.288Z,80.40
2019-05-15T03:46:01.542Z,80.10
2019-05-15T03:48:30.431Z,81.50
2019-05-15T03:50:59.909Z,81.50
2019-05-15T03:53:30.081Z,82.60
2019-05-15T03:55:59.377Z,81.20
2019-05-15T03:58:28.998Z,80.90
2019-05-15T04:01:00.153Z,80.00
2019-05-15T04:03:30.383Z,79.20
2019-05-15T04:06:00.693Z,80.50
2019-05-15T04:08:30.289Z,80.80
2019-05-15T04:10:59.916Z,80.50
2019-05-15T04:13:30.186Z,80.20
2019-05-15T04:15:59.651Z,78.60
2019-05-15T04:18:29.517Z,79.50
2019-05-15T04:21:00.134Z,79.10
2019-05-15T04:23:30.286Z,79.60
2019-05-15T04:25:59.614Z,79.40
2019-05-15T04:28:29.416Z,79.60
2019-05-15T04:30:59.639Z,78.90
2019-05-15T04:33:29.660Z,79.80
2019-05-15T04:35:59.173Z,79.10
2019-05-15T04:38:29.586Z,79.30
2019-05-15T04:40:59.831Z,79.40
2019-05-15T04:43:32.137Z,79.00
2019-05-15T04:46:03.105Z,78.30
2019-05-15T04:48:31.470Z,78.30
2019-05-15T04:51:00.678Z,78.20
2019-05-15T04:53:33.111Z,78.00
2019-05-15T04:56:00.748Z,77.90
2019-05-15T04:58:29.964Z,77.70
2019-05-15T05:01:00.119Z,77.50
2019-05-15T05:03:30.760Z,77.70
2019-05-15T05:06:00.552Z,76.60
2019-05-15T05:08:29.705Z,77.30
2019-05-15T05:10:59.379Z,76.50
2019-05-15T05:13:28.959Z,76.10
2019-05-15T05:15:58.872Z,76.50
2019-05-15T05:18:29.725Z,74.80
2019-05-15T05:21:07.604Z,74.60
2019-05-15T05:23:58.805Z,74.30
2019-05-15T05:26:33.576Z,74.60
2019-05-15T05:29:02.799Z,75.00
2019-05-15T05:31:31.958Z,75.10
2019-05-15T05:34:01.314Z,75.40
2019-05-15T05:36:30.584Z,75.00
2019-05-15T05:38:59.863Z,75.20
2019-05-15T05:41:29.115Z,75.70
2019-05-15T05:43:58.749Z,74.70
2019-05-15T05:46:28.148Z,74.50
2019-05-15T05:48:58.342Z,74.10
2019-05-15T05:51:28.236Z,74.10
2019-05-15T05:53:59.012Z,74.10
2019-05-15T05:56:28.757Z,73.20
2019-05-15T05:58:59.161Z,73.30
2019-05-15T06:01:28.434Z,73.90
2019-05-15T06:03:58.316Z,72.80
2019-05-15T06:06:29.339Z,72.80
2019-05-15T06:08:59.530Z,73.40
2019-05-15T06:11:28.793Z,73.40
2019-05-15T06:13:58.482Z,74.30
2019-05-15T06:16:28.338Z,73.30
2019-05-15T06:18:58.620Z,73.40
2019-05-15T06:21:28.619Z,72.30
2019-05-15T06:24:04.037Z,72.50
2019-05-15T06:26:28.874Z,72.60
2019-05-15T06:28:58.589Z,72.20
2019-05-15T06:31:28.182Z,72.10
2019-05-15T06:33:58.051Z,72.90
2019-05-15T06:36:28.940Z,72.80
2019-05-15T06:38:59.514Z,72.60
2019-05-15T06:41:28.786Z,73.10
2019-05-15T06:43:58.867Z,73.00
2019-05-15T06:46:28.346Z,73.30
2019-05-15T06:48:58.114Z,73.60
2019-05-15T06:51:28.808Z,73.40
2019-05-15T06:53:58.414Z,73.40
2019-05-15T06:56:28.296Z,72.00
2019-05-15T06:58:58.208Z,71.90
2019-05-15T07:01:29.458Z,71.70
2019-05-15T07:03:58.974Z,71.90
2019-05-15T07:06:28.779Z,71.70
2019-05-15T07:08:59.235Z,71.80
2019-05-15T07:11:28.654Z,71.40
2019-05-15T07:13:58.169Z,71.00
2019-05-15T07:16:28.393Z,70.40
2019-05-15T07:18:59.124Z,70.40
2019-05-15T07:21:28.617Z,70.80
2019-05-15T07:23:58.525Z,70.70
2019-05-15T07:26:29.043Z,70.70
2019-05-15T07:29:00.083Z,70.80
2019-05-15T07:31:30.468Z,70.30
2019-05-15T07:34:00.000Z,71.00
2019-05-15T07:36:30.341Z,72.10
2019-05-15T07:38:59.783Z,72.60
2019-05-15T07:41:29.242Z,72.80
2019-05-15T07:43:58.771Z,73.70
2019-05-15T07:46:28.861Z,73.80
2019-05-15T07:48:58.477Z,74.00
2019-05-15T07:51:28.756Z,74.10
2019-05-15T07:53:58.461Z,73.40
2019-05-15T07:56:28.886Z,73.10
2019-05-15T07:58:58.695Z,71.80
2019-05-15T08:01:29.126Z,71.80
2019-05-15T08:04:14.297Z,72.60
2019-05-15T08:06:29.566Z,72.40
2019-05-15T08:08:59.343Z,71.80
2019-05-15T08:11:28.759Z,71.50
2019-05-15T08:13:58.310Z,71.10
2019-05-15T08:16:28.859Z,70.80
2019-05-15T08:18:58.261Z,70.20
2019-05-15T08:21:29.221Z,70.10
2019-05-15T08:23:59.071Z,70.40
2019-05-15T08:26:28.555Z,69.60
2019-05-15T08:28:58.037Z,69.70
2019-05-15T08:31:28.818Z,69.00
2019-05-15T08:34:12.271Z,68.60
2019-05-15T08:36:31.278Z,67.60
2019-05-15T08:38:59.891Z,67.50
2019-05-15T08:41:29.608Z,66.60
2019-05-15T08:43:58.967Z,65.60
2019-05-15T08:46:28.336Z,63.20
2019-05-15T08:48:58.338Z,63.30
2019-05-15T08:51:28.391Z,62.10
2019-05-15T08:53:58.061Z,62.00
2019-05-15T08:56:28.915Z,61.40
2019-05-15T08:58:58.415Z,60.50
2019-05-15T09:01:28.748Z,59.60
2019-05-15T09:03:58.310Z,59.20
2019-05-15T09:06:29.192Z,58.40
2019-05-15T09:08:58.691Z,58.40
2019-05-15T09:11:28.410Z,59.20
2019-05-15T09:13:59.473Z,58.30
2019-05-15T09:16:28.640Z,57.80
2019-05-15T09:18:59.152Z,57.60
2019-05-15T09:21:28.628Z,56.50
2019-05-15T09:23:58.992Z,55.80
2019-05-15T09:26:28.493Z,54.60
2019-05-15T09:28:58.517Z,54.00
2019-05-15T09:31:28.483Z,53.40
2019-05-15T09:33:58.615Z,53.60
2019-05-15T09:36:28.835Z,54.00
2019-05-15T09:38:58.626Z,53.00
2019-05-15T09:41:28.651Z,52.80
2019-05-15T09:43:58.214Z,52.30
2019-05-15T09:46:29.165Z,50.70
2019-05-15T09:48:59.413Z,50.30
2019-05-15T09:51:29.062Z,49.60
2019-05-15T09:54:00.038Z,50.20
2019-05-15T09:56:29.303Z,50.30
2019-05-15T09:58:58.501Z,49.90
2019-05-15T10:01:28.491Z,50.30
2019-05-15T10:03:57.940Z,50.20
2019-05-15T10:06:28.703Z,50.90
2019-05-15T10:08:58.033Z,50.90
2019-05-15T10:11:28.896Z,50.40
2019-05-15T10:13:58.545Z,49.90
2019-05-15T10:16:27.899Z,49.20
2019-05-15T10:18:58.170Z,50.20
2019-05-15T10:21:32.211Z,49.80
2019-05-15T10:23:59.121Z,49.70
2019-05-15T10:26:29.679Z,47.80
2019-05-15T10:28:58.814Z,46.60
2019-05-15T10:31:28.376Z,46.10
2019-05-15T10:33:58.257Z,45.40
2019-05-15T10:36:28.074Z,46.30
2019-05-15T10:38:59.283Z,46.40
2019-05-15T10:41:28.332Z,46.40
2019-05-15T10:44:00.100Z,45.50
2019-05-15T10:46:28.515Z,46.70
2019-05-15T10:48:58.577Z,45.60
2019-05-15T10:51:28.721Z,44.90
2019-05-15T10:53:58.122Z,44.60
2019-05-15T10:56:29.147Z,45.10
2019-05-15T10:59:00.466Z,44.80
2019-05-15T11:01:29.662Z,43.60
2019-05-15T11:03:59.061Z,43.90
2019-05-15T11:06:28.810Z,44.10
2019-05-15T11:08:58.372Z,43.50
2019-05-15T11:11:27.796Z,41.90
2019-05-15T11:14:00.359Z,41.60
2019-05-15T11:16:28.312Z,42.20
2019-05-15T11:18:58.514Z,40.80
2019-05-15T11:21:27.869Z,40.40
2019-05-15T11:23:59.103Z,41.00
2019-05-15T11:26:33.124Z,41.10
2019-05-15T11:28:58.975Z,41.70
2019-05-15T11:31:28.760Z,41.20
2019-05-15T11:33:59.385Z,38.60
2019-05-15T11:36:28.928Z,38.00
2019-05-15T11:38:58.397Z,37.60
2019-05-15T11:41:29.434Z,36.10
2019-05-15T11:43:58.477Z,37.10
2019-05-15T11:46:29.138Z,39.20
2019-05-15T11:48:58.900Z,41.30
2019-05-15T11:51:29.048Z,43.20
2019-05-15T11:53:58.873Z,43.00
2019-05-15T11:56:29.735Z,45.40
2019-05-15T11:58:59.059Z,46.30
2019-05-15T12:01:29.274Z,47.30
2019-05-15T12:03:58.748Z,47.40
2019-05-15T12:06:29.266Z,46.90
2019-05-15T12:08:59.342Z,45.80
2019-05-15T12:11:36.660Z,46.00
2019-05-15T12:14:01.190Z,45.10
2019-05-15T12:16:30.376Z,44.90
2019-05-15T12:19:09.095Z,44.80
2019-05-15T12:21:30.584Z,45.30
2019-05-15T12:24:00.688Z,45.90
2019-05-15T12:26:29.847Z,46.40
2019-05-15T12:28:59.208Z,47.50
2019-05-15T12:31:28.621Z,47.60
2019-05-15T12:33:58.584Z,49.30
2019-05-15T12:36:50.111Z,50.90
2019-05-15T12:38:58.828Z,52.50
2019-05-15T13:01:35.508Z,51.90
2019-05-15T13:04:04.681Z,51.00
2019-05-15T13:06:47.359Z,50.60
2019-05-15T13:09:08.386Z,50.30
2019-05-15T13:11:37.820Z,49.50
2019-05-15T13:14:08.154Z,49.20
2019-05-15T13:16:39.033Z,49.00
2019-05-15T13:19:08.397Z,49.00
2019-05-15T13:21:38.600Z,50.20
2019-05-15T13:24:09.529Z,50.30
2019-05-15T13:26:38.771Z,50.70
2019-05-15T13:29:09.017Z,50.20
2019-05-15T13:31:39.540Z,50.90
2019-05-15T13:34:08.812Z,51.50
2019-05-15T13:36:39.275Z,51.00
2019-05-15T13:39:08.835Z,50.80
2019-05-15T13:41:38.626Z,51.20
2019-05-15T13:44:09.036Z,51.90
2019-05-15T13:46:38.515Z,52.20
2019-05-15T13:49:08.360Z,52.30
2019-05-15T13:51:38.360Z,51.10
2019-05-15T13:54:08.651Z,51.00
2019-05-15T13:56:38.222Z,51.10
2019-05-15T13:59:08.054Z,51.00
2019-05-15T14:01:39.306Z,52.60
2019-05-15T14:04:08.684Z,52.40
2019-05-15T14:06:38.137Z,53.00
2019-05-15T14:09:08.927Z,53.00
2019-05-15T14:11:38.992Z,52.70
2019-05-15T14:14:08.465Z,52.40
2019-05-15T14:16:38.434Z,53.80
2019-05-15T14:19:08.404Z,53.80
2019-05-15T14:21:38.074Z,53.80
2019-05-15T14:24:09.251Z,54.10
2019-05-15T14:26:38.459Z,54.80
2019-05-15T14:29:08.921Z,53.70
2019-05-15T14:31:39.532Z,53.30
2019-05-15T14:34:09.003Z,53.30
2019-05-15T14:36:38.160Z,54.10
2019-05-15T14:39:08.160Z,53.10
2019-05-15T14:41:38.183Z,53.20
2019-05-15T14:44:16.799Z,54.30
2019-05-15T14:46:38.564Z,53.80
2019-05-15T14:49:08.975Z,54.00
2019-05-15T14:51:39.164Z,54.40
2019-05-15T14:54:09.197Z,54.40
2019-05-15T14:56:38.536Z,54.70
2019-05-15T14:59:09.092Z,54.80
2019-05-15T15:01:38.639Z,54.90
2019-05-15T15:04:08.854Z,53.60
2019-05-15T15:06:38.678Z,53.80
2019-05-15T15:09:09.697Z,54.40
2019-05-15T15:11:38.920Z,54.30
2019-05-15T15:14:08.554Z,54.60
2019-05-15T15:16:39.139Z,55.90
2019-05-15T15:19:08.454Z,55.70
2019-05-15T15:21:38.369Z,56.20
2019-05-15T15:24:08.411Z,56.70
2019-05-15T15:26:39.177Z,57.00
2019-05-15T15:29:08.831Z,57.30
2019-05-15T15:31:38.995Z,56.20
2019-05-15T15:34:11.468Z,55.30
2019-05-15T15:36:40.682Z,55.10
2019-05-15T15:39:09.860Z,54.90
2019-05-15T15:41:39.181Z,54.80
2019-05-15T15:44:08.868Z,54.50
2019-05-15T15:46:39.508Z,54.50
2019-05-15T15:49:09.155Z,54.30
2019-05-15T15:51:38.610Z,54.30
2019-05-15T15:54:08.526Z,54.50
2019-05-15T15:56:39.340Z,54.40
2019-05-15T15:59:08.998Z,54.30
2019-05-15T16:01:39.129Z,54.70
2019-05-15T16:04:08.717Z,54.80
2019-05-15T16:06:38.766Z,55.40
2019-05-15T16:09:08.640Z,55.20
2019-05-15T16:11:38.616Z,55.60
2019-05-15T16:14:09.392Z,55.20
2019-05-15T16:16:38.722Z,55.30
2019-05-15T16:19:07.955Z,55.40
2019-05-15T16:21:39.385Z,55.80
2019-05-15T16:24:17.375Z,55.30
2019-05-15T16:26:39.175Z,56.20
2019-05-15T16:29:09.215Z,55.70
2019-05-15T16:31:38.596Z,55.70
2019-05-15T16:34:08.192Z,55.40
2019-05-15T16:36:38.469Z,55.80
2019-05-15T16:39:11.469Z,56.00
2019-05-15T16:41:38.822Z,55.90
2019-05-15T16:44:09.665Z,55.80
2019-05-15T16:46:39.343Z,55.90
2019-05-15T16:49:08.626Z,56.60
2019-05-15T16:51:38.385Z,57.30
2019-05-15T16:54:08.799Z,57.00
2019-05-15T16:56:40.140Z,56.70
2019-05-15T16:59:09.257Z,56.40
2019-05-15T17:01:39.903Z,57.50
2019-05-15T17:04:09.081Z,57.20
2019-05-15T17:06:38.908Z,57.60
2019-05-15T17:09:20.723Z,57.90
2019-05-15T17:11:39.835Z,57.60
2019-05-15T17:14:09.228Z,57.80
2019-05-15T17:16:38.909Z,57.90
2019-05-15T17:19:08.694Z,58.30
2019-05-15T17:21:38.107Z,58.80
2019-05-15T17:24:08.833Z,58.60
2019-05-15T17:26:38.273Z,58.50
2019-05-15T17:29:09.094Z,58.80
2019-05-15T17:31:38.705Z,59.10
2019-05-15T17:34:07.984Z,58.70
2019-05-15T17:36:38.265Z,59.10
2019-05-15T17:39:08.872Z,59.30
2019-05-15T17:41:39.090Z,59.30
2019-05-15T17:44:08.683Z,59.50
2019-05-15T17:46:38.577Z,59.50
2019-05-15T17:49:14.996Z,59.30
2019-05-15T17:51:38.916Z,59.70
2019-05-15T17:54:08.888Z,60.00
2019-05-15T17:56:39.270Z,60.50
2019-05-15T17:59:08.773Z,60.60
2019-05-15T18:01:38.398Z,61.00
2019-05-15T18:04:08.477Z,62.40
2019-05-15T18:06:39.870Z,62.00
2019-05-15T18:09:09.449Z,61.70
2019-05-15T18:11:38.737Z,61.70
2019-05-15T18:14:08.935Z,62.00
2019-05-15T18:16:38.359Z,61.90
2019-05-15T18:19:08.270Z,61.70
2019-05-15T18:21:38.295Z,62.10
2019-05-15T18:24:09.207Z,62.00
2019-05-15T18:26:38.913Z,62.30
2019-05-15T18:29:09.130Z,62.90
2019-05-15T18:31:38.614Z,63.20
2019-05-15T18:34:08.260Z,63.60
2019-05-15T18:36:39.362Z,64.00
2019-05-15T18:39:08.738Z,64.40
2019-05-15T18:41:38.010Z,64.20
2019-05-15T18:44:07.212Z,64.60
2019-05-15T18:46:38.175Z,64.90
2019-05-15T18:49:07.326Z,65.00
2019-05-15T18:51:38.600Z,64.90
2019-05-15T18:54:08.115Z,64.50
2019-05-15T18:56:38.635Z,64.30
2019-05-15T18:59:08.619Z,64.30
2019-05-15T19:01:39.354Z,64.40
2019-05-15T19:04:08.857Z,64.70
2019-05-15T19:06:40.686Z,64.70
2019-05-15T19:09:10.018Z,64.80
2019-05-15T19:11:39.459Z,64.90
2019-05-15T19:14:09.837Z,64.90
2019-05-15T19:16:39.186Z,65.20
2019-05-15T19:19:08.625Z,65.10
2019-05-15T19:21:38.206Z,65.50
2019-05-15T19:24:07.810Z,66.00
2019-05-15T19:26:37.095Z,65.90
2019-05-15T19:29:08.327Z,65.80
2019-05-15T19:31:39.277Z,65.80
2019-05-15T19:34:08.864Z,65.70
2019-05-15T19:36:38.371Z,65.70
2019-05-15T19:39:10.638Z,66.10
2019-05-15T19:41:40.069Z,66.50
2019-05-15T19:44:09.450Z,66.80
2019-05-15T19:46:38.835Z,66.80
2019-05-15T19:49:08.773Z,67.30
2019-05-15T19:51:38.293Z,67.20
2019-05-15T19:54:09.158Z,67.10
2019-05-15T19:56:38.871Z,67.40
2019-05-15T19:59:08.869Z,67.50
2019-05-15T20:01:38.551Z,68.20
2019-05-15T20:04:09.790Z,68.10
2019-05-15T20:06:39.195Z,68.50
2019-05-15T20:09:08.731Z,69.10
2019-05-15T20:11:38.535Z,68.90
2019-05-15T20:14:08.041Z,69.40
2019-05-15T20:16:38.840Z,70.10
2019-05-15T20:19:11.873Z,70.00
2019-05-15T20:21:42.895Z,70.80
2019-05-15T20:24:12.058Z,70.70
2019-05-15T20:26:42.403Z,71.20
2019-05-15T20:29:11.645Z,71.50
2019-05-15T20:31:40.817Z,71.70
2019-05-15T20:34:11.152Z,72.40
2019-05-15T20:36:40.592Z,72.70
2019-05-15T20:39:09.825Z,73.20
2019-05-15T20:41:39.064Z,73.30
2019-05-15T20:44:08.897Z,73.00
2019-05-15T20:46:39.375Z,72.50
2019-05-15T20:49:08.725Z,73.40
2019-05-15T20:51:38.964Z,73.60
2019-05-15T20:54:09.568Z,74.30
2019-05-15T20:56:38.718Z,73.80
2019-05-15T20:59:08.930Z,74.90
2019-05-15T21:01:38.333Z,75.00
2019-05-15T21:04:19.265Z,74.90
2019-05-15T21:06:38.678Z,74.80
2019-05-15T21:09:08.450Z,74.70
2019-05-15T21:11:39.681Z,74.60
2019-05-15T21:14:08.791Z,74.00
2019-05-15T21:16:38.125Z,73.40
2019-05-15T21:19:08.497Z,74.00
2019-05-15T21:21:38.603Z,73.90
2019-05-15T21:24:10.235Z,74.00
2019-05-15T21:26:38.924Z,74.40
2019-05-15T21:29:08.093Z,74.30
2019-05-15T21:31:38.012Z,75.30
2019-05-15T21:34:08.527Z,75.20
2019-05-15T21:36:39.381Z,76.40
2019-05-15T21:39:08.934Z,75.50
2019-05-15T21:41:38.836Z,75.60
2019-05-15T21:44:08.621Z,75.60
2019-05-15T21:46:38.074Z,75.30
2019-05-15T21:49:08.871Z,75.20
2019-05-15T21:51:39.113Z,76.10
2019-05-15T21:54:09.936Z,76.30
2019-05-15T21:56:39.149Z,76.40
2019-05-15T21:59:08.471Z,75.90
2019-05-15T22:01:39.663Z,75.90
2019-05-15T22:04:08.602Z,76.00
2019-05-15T22:06:37.782Z,76.00
2019-05-15T22:09:09.063Z,75.50
2019-05-15T22:11:39.578Z,74.80
2019-05-15T22:14:09.208Z,75.80
2019-05-15T22:16:38.396Z,75.90
2019-05-15T22:19:10.470Z,73.70
2019-05-15T22:21:40.644Z,73.90
2019-05-15T22:24:09.351Z,74.10
2019-05-15T22:26:38.533Z,74.50
2019-05-15T22:29:08.881Z,74.80
2019-05-15T22:31:40.026Z,75.10
2019-05-15T22:34:09.197Z,76.00
2019-05-15T22:36:38.374Z,75.50
2019-05-15T22:39:08.675Z,75.90
2019-05-15T22:41:38.889Z,76.20
2019-05-15T22:44:10.199Z,76.50
2019-05-15T22:46:39.105Z,76.70
2019-05-15T22:49:08.403Z,76.70
2019-05-15T22:51:38.209Z,76.70
2019-05-15T22:54:08.652Z,76.80
2019-05-15T22:56:37.961Z,77.50
2019-05-15T22:59:08.590Z,76.90
2019-05-15T23:01:38.896Z,77.20
2019-05-15T23:04:08.986Z,77.50
2019-05-15T23:06:38.855Z,77.70
2019-05-15T23:09:08.240Z,77.90
2019-05-15T23:11:39.369Z,77.80
2019-05-15T23:14:08.301Z,77.70
2019-05-15T23:16:39.137Z,77.70
2019-05-15T23:19:08.529Z,77.70
2019-05-15T23:21:40.052Z,77.90
2019-05-15T23:24:08.658Z,77.90
2019-05-15T23:26:38.757Z,78.00
2019-05-15T23:29:08.300Z,78.10
2019-05-15T23:31:37.446Z,78.10
2019-05-15T23:34:08.090Z,78.20
2019-05-15T23:36:37.916Z,78.20
2019-05-15T23:39:08.228Z,78.00
2019-05-15T23:41:37.446Z,77.70
2019-05-15T23:44:08.208Z,77.70
2019-05-15T23:46:38.234Z,77.80
2019-05-15T23:49:08.365Z,78.10
2019-05-15T23:51:38.497Z,78.10
2019-05-15T23:54:08.400Z,78.00
2019-05-15T23:56:39.099Z,78.00
2019-05-15T23:59:09.464Z,78.00
